Time;durP1;ratioP1;P1;durP2;ratioP2;P2;SDS_P1;SDS_P2;PMS_P1;PMS_P2;Temp;Humidity;BMP_temperature;BMP_pressure;BME280_temperature;BME280_humidity;BME280_pressure;Samples;Min_cycle;Max_cycle;Signal;HPM_P1;HPM_P2
2022/08/12 00:45:04;;;;;;;3.33;2.27;;;;;;;;;;5058608;28;20181;-81
2022/08/12 00:47:32;;;;;;;3.73;2.77;;;14.50;99.90;;;;;;5058330;28;20174;-81
2022/08/12 00:49:58;;;;;;;2.70;2.50;;;;;;;;;;5056544;28;20204;-81
2022/08/12 00:52:25;;;;;;;2.60;2.33;;;;;;;;;;5056833;28;20203;-81
2022/08/12 00:54:58;;;;;;;2.60;2.30;;;14.40;99.90;;;;;;5057801;28;20691;-81
2022/08/12 00:57:25;;;;;;;2.40;2.20;;;14.50;99.90;;;;;;5057011;28;20178;-82
2022/08/12 00:59:51;;;;;;;2.60;2.40;;;;;;;;;;5075363;28;20192;-80
2022/08/12 01:02:37;;;;;;;3.53;2.07;;;14.40;99.90;;;;;;5074633;28;20174;-81
2022/08/12 01:13:22;;;;;;;3.10;2.70;;;14.20;99.90;;;;;;5056676;28;20671;-81
2022/08/12 01:15:54;;;;;;;3.30;2.80;;;14.10;99.90;;;;;;5055354;28;20187;-81
2022/08/12 01:18:23;;;;;;;4.17;3.13;;;14.10;99.90;;;;;;5054928;28;20177;-81
2022/08/12 01:20:51;;;;;;;2.90;2.60;;;14.10;99.90;;;;;;5056559;28;20208;-81
2022/08/12 01:23:33;;;;;;;3.97;3.37;;;13.90;99.90;;;;;;5056459;28;20214;-81
2022/08/12 01:26:02;;;;;;;4.13;3.13;;;;;;;;;;5056931;28;20615;-81
2022/08/12 01:28:30;;;;;;;4.37;3.53;;;;;;;;;;5054923;28;20184;-81
2022/08/12 01:30:57;;;;;;;3.50;3.17;;;13.80;99.90;;;;;;5054847;28;20204;-81
2022/08/12 01:33:24;;;;;;;4.23;3.50;;;;;;;;;;5055111;28;20298;-81
2022/08/12 01:35:59;;;;;;;4.00;3.60;;;13.70;99.90;;;;;;5056607;28;20181;-81
2022/08/12 01:38:25;;;;;;;4.13;3.57;;;;;;;;;;5055127;28;20250;-81
2022/08/12 01:40:52;;;;;;;4.13;3.53;;;;;;;;;;5056579;28;20216;-81
2022/08/12 01:43:20;;;;;;;6.37;3.77;;;13.60;99.90;;;;;;5055480;28;20186;-81
2022/08/12 01:46:13;;;;;;;4.63;3.40;;;13.60;99.90;;;;;;5055606;28;20181;-81
2022/08/12 01:48:39;;;;;;;4.87;3.50;;;;;;;;;;5055583;28;20535;-80
2022/08/12 01:51:08;;;;;;;3.93;3.53;;;;;;;;;;5058949;28;20201;-81
2022/08/12 01:53:58;;;;;;;4.87;3.73;;;13.60;99.90;;;;;;5056203;28;20219;-81
2022/08/12 01:56:29;;;;;;;3.87;3.40;;;13.60;99.90;;;;;;5056692;28;20158;-81
2022/08/12 02:01:49;;;;;;;4.63;3.77;;;13.50;99.90;;;;;;5056955;28;20543;-81
2022/08/12 02:13:55;;;;;;;4.83;4.33;;;13.40;99.90;;;;;;5066304;28;20234;-81
2022/08/12 02:16:33;;;;;;;4.87;4.10;;;13.40;99.90;;;;;;5062801;28;20169;-81
2022/08/12 02:19:26;;;;;;;5.53;4.20;;;13.30;99.90;;;;;;5059700;28;20168;-81
2022/08/12 02:22:04;;;;;;;5.90;4.23;;;;;;;;;;5060378;28;20161;-81
2022/08/12 02:24:33;;;;;;;5.90;4.40;;;13.30;99.90;;;;;;5060579;28;20169;-81
2022/08/12 02:27:00;;;;;;;5.20;4.67;;;;;;;;;;5060818;28;20528;-81
2022/08/12 02:29:26;;;;;;;6.17;3.90;;;;;;;;;;5059063;28;20198;-81
2022/08/12 02:31:53;;;;;;;4.47;4.03;;;13.30;99.90;;;;;;5061119;28;20182;-81
2022/08/12 02:34:21;;;;;;;5.27;4.13;;;13.20;99.90;;;;;;5060141;28;20235;-81
2022/08/12 02:36:48;;;;;;;4.83;4.33;;;;;;;;;;5061240;28;20264;-81
2022/08/12 02:39:15;;;;;;;7.77;3.97;;;;;;;;;;5066242;28;20222;-80
2022/08/12 02:41:42;;;;;;;4.97;3.87;;;13.10;99.90;;;;;;5070600;28;20185;-81
2022/08/12 02:44:09;;;;;;;6.53;3.93;;;;;;;;;;5059288;28;20177;-81
2022/08/12 02:46:36;;;;;;;5.87;4.07;;;13.10;99.90;;;;;;5059900;28;20182;-81
2022/08/12 02:49:09;;;;;;;4.70;3.60;;;;;;;;;;5058262;28;20192;-81
2022/08/12 02:51:40;;;;;;;6.60;3.90;;;13.00;99.90;;;;;;5059709;28;20216;-81
2022/08/12 02:54:06;;;;;;;5.83;4.00;;;;;;;;;;5057950;28;20204;-81
2022/08/12 02:56:39;;;;;;;8.77;4.30;;;13.00;99.90;;;;;;5058148;28;20177;-80
2022/08/12 02:59:09;;;;;;;7.60;4.13;;;12.80;99.90;;;;;;5057900;28;20173;-81
2022/08/12 03:01:36;;;;;;;3.93;3.37;;;;;;;;;;5059873;28;20174;-81
2022/08/12 03:04:06;;;;;;;7.43;4.10;;;12.90;99.90;;;;;;5059694;28;20628;-80
2022/08/12 03:06:37;;;;;;;6.73;4.00;;;12.80;99.90;;;;;;5058558;28;20184;-81
2022/08/12 03:09:05;;;;;;;6.23;3.97;;;12.80;99.90;;;;;;5058277;28;20557;-81
2022/08/12 03:11:39;;;;;;;5.17;4.40;;;12.80;99.90;;;;;;5058302;28;20184;-81
2022/08/12 03:14:05;;;;;;;4.53;3.93;;;;;;;;;;5059734;28;20182;-81
2022/08/12 03:16:31;;;;;;;7.00;4.13;;;12.60;99.90;;;;;;5057945;28;20174;-81
2022/08/12 03:18:58;;;;;;;4.47;3.80;;;12.60;99.90;;;;;;5057714;28;20201;-81
2022/08/12 03:21:24;;;;;;;9.03;4.23;;;;;;;;;;5059035;28;20184;-81
2022/08/12 03:23:53;;;;;;;4.23;3.83;;;12.60;99.90;;;;;;5059510;28;20193;-81
2022/08/12 03:26:23;;;;;;;7.27;4.83;;;12.60;99.90;;;;;;5059316;28;20185;-81
2022/08/12 03:28:49;;;;;;;4.73;4.33;;;;;;;;;;5058165;28;20188;-80
2022/08/12 03:31:18;;;;;;;5.67;4.73;;;12.50;99.90;;;;;;5059851;28;20609;-81
2022/08/12 03:33:46;;;;;;;5.57;4.43;;;;;;;;;;5057173;28;20230;-81
2022/08/12 03:36:17;;;;;;;5.40;4.90;;;12.50;99.90;;;;;;5057126;28;20173;-81
2022/08/12 03:38:52;;;;;;;5.87;4.50;;;12.40;99.90;;;;;;5057224;28;20174;-81
2022/08/12 03:41:35;;;;;;;6.83;5.53;;;12.40;99.90;;;;;;5056768;28;20679;-81
2022/08/12 04:01:11;;;;;;;5.40;4.90;;;;;;;;;;5059424;28;20292;-82
2022/08/12 04:03:53;;;;;;;5.90;4.27;;;12.20;99.90;;;;;;5059102;28;20175;-81
2022/08/12 04:06:27;;;;;;;5.23;4.60;;;12.20;99.90;;;;;;5057641;28;20180;-81
2022/08/12 04:08:57;;;;;;;5.27;4.53;;;12.10;99.90;;;;;;5057295;28;20232;-82
2022/08/12 04:14:19;;;;;;;9.47;5.17;;;12.10;99.90;;;;;;5066297;28;20253;-80
2022/08/12 04:16:49;;;;;;;7.40;5.53;;;12.10;99.90;;;;;;5074991;28;20173;-81
2022/08/12 04:19:15;;;;;;;5.67;4.97;;;12.10;99.90;;;;;;5073155;28;20183;-81
2022/08/12 04:21:42;;;;;;;6.07;5.33;;;;;;;;;;5065095;28;20170;-81
2022/08/12 04:24:08;;;;;;;7.40;4.67;;;;;;;;;;5060238;28;20287;-81
2022/08/12 04:26:35;;;;;;;8.60;5.30;;;;;;;;;;5056871;28;20206;-81
2022/08/12 04:29:01;;;;;;;5.83;4.60;;;12.10;99.90;;;;;;5056444;28;20188;-81
2022/08/12 04:31:38;;;;;;;5.73;4.90;;;12.10;99.90;;;;;;5058763;28;20177;-81
2022/08/12 04:34:06;;;;;;;6.43;5.07;;;12.10;99.90;;;;;;5056978;28;20232;-81
2022/08/12 04:36:33;;;;;;;14.23;5.90;;;12.10;99.90;;;;;;5058654;28;20173;-80
2022/08/12 04:39:00;;;;;;;5.73;5.13;;;12.20;99.90;;;;;;5056391;28;20177;-81
2022/08/12 04:41:26;;;;;;;6.30;5.33;;;;;;;;;;5057853;28;20170;-81
2022/08/12 04:43:53;;;;;;;6.70;5.27;;;12.30;99.90;;;;;;5057909;28;20172;-81
2022/08/12 04:46:20;;;;;;;8.77;5.60;;;12.30;99.90;;;;;;5058093;28;20179;-81
2022/08/12 04:48:45;;;;;;;7.23;4.90;;;12.20;99.90;;;;;;5057524;28;20170;-81
2022/08/12 04:51:12;;;;;;;5.97;4.87;;;12.30;99.90;;;;;;5057484;28;20774;-81
2022/08/12 04:53:42;;;;;;;6.73;4.53;;;;;;;;;;5056199;28;20201;-81
2022/08/12 04:56:09;;;;;;;7.73;4.27;;;12.30;99.90;;;;;;5056782;28;20197;-81
2022/08/12 04:58:35;;;;;;;5.90;4.93;;;;;;;;;;5056139;28;20203;-81
2022/08/12 05:01:02;;;;;;;7.17;5.20;;;12.30;99.90;;;;;;5057036;28;20197;-83
2022/08/12 05:03:28;;;;;;;6.50;5.07;;;;;;;;;;5056349;28;20173;-81
2022/08/12 05:05:56;;;;;;;8.10;4.63;;;12.70;99.90;;;;;;5057625;28;20169;-81
2022/08/12 05:08:22;;;;;;;6.67;5.43;;;;;;;;;;5057676;28;20185;-81
2022/08/12 05:10:49;;;;;;;8.07;5.00;;;12.50;99.90;;;;;;5057767;28;20223;-81
2022/08/12 05:13:16;;;;;;;6.63;4.93;;;;;;;;;;5059006;28;20194;-81
2022/08/12 05:15:44;;;;;;;8.20;4.87;;;;;;;;;;5056266;28;20204;-80
2022/08/12 05:18:10;;;;;;;9.23;5.40;;;;;;;;;;5055963;28;20304;-81
2022/08/12 05:20:37;;;;;;;5.87;5.30;;;12.70;99.90;;;;;;5057080;28;20197;-81
2022/08/12 05:23:13;;;;;;;5.60;4.70;;;12.80;99.90;;;;;;5057551;28;20183;-81
2022/08/12 05:25:47;;;;;;;7.80;6.00;;;13.00;99.90;;;;;;5058111;28;20628;-81
2022/08/12 05:28:13;;;;;;;7.13;5.37;;;;;;;;;;5056101;28;20169;-81
2022/08/12 05:30:41;;;;;;;8.87;5.00;;;;;;;;;;5055218;28;20351;-81
2022/08/12 05:33:08;;;;;;;19.20;5.73;;;12.80;99.90;;;;;;5056516;28;20206;-81
2022/08/12 05:35:41;;;;;;;9.73;5.13;;;13.00;99.90;;;;;;5055333;28;20174;-81
2022/08/12 05:40:54;;;;;;;8.03;5.27;;;13.10;99.90;;;;;;5057046;28;20208;-81
2022/08/12 05:43:20;;;;;;;5.37;4.73;;;13.10;99.90;;;;;;5055500;28;20185;-81
2022/08/12 05:45:46;;;;;;;7.43;4.53;;;13.10;99.90;;;;;;5056134;28;20554;-81
2022/08/12 05:48:13;;;;;;;7.87;5.23;;;;;;;;;;5055571;28;20212;-81
2022/08/12 05:50:40;;;;;;;9.03;4.67;;;13.30;99.90;;;;;;5056202;28;20201;-81
2022/08/12 05:53:06;;;;;;;6.97;4.77;;;;;;;;;;5066231;28;20236;-81
2022/08/12 05:55:32;;;;;;;8.50;4.77;;;;;;;;;;5073566;28;20188;-80
2022/08/12 05:58:00;;;;;;;14.47;4.77;;;;;;;;;;5067262;28;20204;-81
2022/08/12 06:00:28;;;;;;;13.67;5.50;;;13.40;99.90;;;;;;5056698;28;20185;-82
2022/08/12 06:03:01;;;;;;;9.20;4.70;;;13.60;99.90;;;;;;5057055;28;20223;-80
2022/08/12 06:05:34;;;;;;;9.07;4.87;;;13.60;99.90;;;;;;5055437;28;20196;-81
2022/08/12 06:08:06;;;;;;;7.97;4.83;;;13.60;99.90;;;;;;5055108;28;20170;-81
2022/08/12 06:10:33;;;;;;;17.20;5.00;;;13.70;99.90;;;;;;5056114;28;20219;-81
2022/08/12 06:13:01;;;;;;;15.40;4.20;;;13.90;99.90;;;;;;5055592;28;20205;-81
2022/08/12 06:15:27;;;;;;;11.43;5.37;;;13.90;99.90;;;;;;5057317;28;20583;-81
2022/08/12 06:17:54;;;;;;;11.20;5.00;;;;;;;;;;5056806;28;20642;-81
2022/08/12 06:20:20;;;;;;;7.03;4.50;;;;;;;;;;5057131;28;20626;-81
2022/08/12 06:22:49;;;;;;;6.83;4.57;;;14.00;99.90;;;;;;5057164;28;20174;-81
2022/08/12 06:25:17;;;;;;;12.17;5.27;;;14.20;99.90;;;;;;5056820;28;20184;-81
2022/08/12 06:27:47;;;;;;;6.20;4.70;;;14.20;99.90;;;;;;5058942;28;20169;-81
2022/08/12 06:30:21;;;;;;;5.73;4.43;;;14.50;99.90;;;;;;5063080;28;20198;-81
2022/08/12 06:32:48;;;;;;;6.93;4.73;;;14.60;99.90;;;;;;5060857;28;20169;-80
2022/08/12 06:35:15;;;;;;;6.10;4.40;;;14.30;99.90;;;;;;5056561;28;20219;-80
2022/08/12 06:37:50;;;;;;;7.83;4.23;;;14.60;99.90;;;;;;5056458;28;20632;-81
2022/08/12 06:43:01;;;;;;;5.00;4.30;;;14.60;99.90;;;;;;5056982;28;20250;-81
2022/08/12 06:45:27;;;;;;;4.80;4.00;;;;;;;;;;5057019;28;20197;-81
2022/08/12 06:47:55;;;;;;;7.43;3.80;;;14.90;99.90;;;;;;5056115;28;20173;-81
2022/08/12 06:50:21;;;;;;;7.40;3.70;;;;;;;;;;5057322;28;20185;-81
2022/08/12 06:52:49;;;;;;;6.17;3.47;;;;;;;;;;5060058;28;20184;-81
2022/08/12 06:55:19;;;;;;;4.43;3.70;;;15.50;99.90;;;;;;5059314;28;20177;-81
2022/08/12 06:58:02;;;;;;;6.07;3.30;;;15.40;99.90;;;;;;5060280;28;20184;-83
2022/08/12 07:00:35;;;;;;;4.83;3.07;;;15.70;99.90;;;;;;5060673;28;20600;-82
2022/08/12 07:03:03;;;;;;;5.73;3.40;;;15.90;99.90;;;;;;5060944;28;20177;-82
2022/08/12 07:05:29;;;;;;;4.33;2.97;;;;;;;;;;5058907;28;20181;-81
2022/08/12 07:07:58;;;;;;;3.40;2.50;;;16.20;99.90;;;;;;5059738;28;20588;-81
2022/08/12 07:10:24;;;;;;;7.97;2.40;;;16.30;99.90;;;;;;5061044;28;20209;-80
2022/08/12 07:12:53;;;;;;;8.93;2.37;;;16.30;99.90;;;;;;5058476;28;20209;-81
2022/08/12 07:15:24;;;;;;;5.40;2.00;;;16.70;99.90;;;;;;5059554;28;20178;-81
2022/08/12 07:17:57;;;;;;;2.53;2.33;;;17.00;99.90;;;;;;5058492;28;20209;-81
2022/08/12 07:20:23;;;;;;;6.93;2.63;;;16.80;99.90;;;;;;5058299;28;20198;-81
2022/08/12 07:22:49;;;;;;;3.37;2.43;;;17.40;99.90;;;;;;5060134;28;20693;-82
2022/08/12 07:25:30;;;;;;;2.63;2.20;;;17.50;99.90;;;;;;5058468;28;20179;-82
2022/08/12 07:28:00;;;;;;;3.60;2.40;;;17.70;99.90;;;;;;5060313;28;20565;-82
2022/08/12 07:30:27;;;;;;;4.37;2.40;;;17.50;99.90;;;;;;5059825;28;20205;-81
2022/08/12 07:32:53;;;;;;;3.60;1.73;;;;;;;;;;5060183;28;20209;-81
2022/08/12 07:35:19;;;;;;;4.97;2.00;;;17.80;99.90;;;;;;5069922;28;20175;-81
2022/08/12 07:37:46;;;;;;;3.57;2.33;;;17.90;99.90;;;;;;5064880;28;20184;-81
2022/08/12 07:40:12;;;;;;;2.30;1.90;;;18.20;99.90;;;;;;5059876;28;20220;-81
2022/08/12 07:42:42;;;;;;;2.77;1.97;;;18.50;99.90;;;;;;5058461;28;20177;-82
2022/08/12 07:45:09;;;;;;;3.23;2.43;;;18.80;99.90;;;;;;5057541;28;20174;-81
2022/08/12 07:47:35;;;;;;;2.43;1.87;;;18.60;99.90;;;;;;5056686;28;20185;-81
2022/08/12 07:50:01;;;;;;;9.73;2.20;;;18.90;99.90;;;;;;5058665;28;20702;-81
2022/08/12 07:52:27;;;;;;;2.60;2.40;;;19.30;99.90;;;;;;5058192;28;20174;-80
2022/08/12 07:54:54;;;;;;;2.07;1.87;;;19.10;99.90;;;;;;5058781;28;20208;-80
2022/08/12 07:57:20;;;;;;;5.63;2.17;;;;;;;;;;5058728;28;20177;-82
2022/08/12 07:59:47;;;;;;;3.90;1.77;;;;;;;;;;5057170;28;20211;-80
2022/08/12 08:02:12;;;;;;;4.70;1.80;;;19.60;99.90;;;;;;5056076;28;20210;-80
2022/08/12 08:04:57;;;;;;;2.27;2.07;;;;;;;;;;5058191;28;20182;-81
2022/08/12 08:07:24;;;;;;;3.33;2.23;;;20.10;99.90;;;;;;5056854;28;20176;-80
2022/08/12 08:09:56;;;;;;;3.60;2.27;;;20.30;99.90;;;;;;5057018;28;20223;-80
2022/08/12 08:15:09;;;;;;;3.50;1.70;;;20.90;99.90;;;;;;5058919;28;20188;-80
2022/08/12 08:17:36;;;;;;;5.40;2.20;;;20.70;99.90;;;;;;5058767;28;20165;-80
2022/08/12 08:20:04;;;;;;;2.93;2.00;;;20.80;99.90;;;;;;5057666;28;20280;-80
2022/08/12 08:22:31;;;;;;;2.80;2.03;;;;;;;;;;5058632;28;20170;-81
2022/08/12 08:24:58;;;;;;;7.13;2.10;;;21.50;99.90;;;;;;5057747;28;20177;-81
2022/08/12 08:27:24;;;;;;;2.43;1.90;;;21.40;99.90;;;;;;5057255;28;20181;-81
2022/08/12 08:29:50;;;;;;;3.90;1.73;;;21.60;99.90;;;;;;5058961;28;20564;-81
2022/08/12 08:32:15;;;;;;;5.43;1.90;;;21.80;99.90;;;;;;5057390;28;20650;-80
2022/08/12 08:34:45;;;;;;;3.60;2.00;;;21.90;99.90;;;;;;5059155;28;20232;-80
2022/08/12 08:37:14;;;;;;;2.17;1.97;;;22.00;99.90;;;;;;5058022;28;20166;-81
2022/08/12 08:39:40;;;;;;;3.30;1.90;;;22.00;99.90;;;;;;5065903;28;20257;-81
2022/08/12 08:44:51;;;;;;;3.57;2.27;;;22.10;98.50;;;;;;5059873;28;20189;-81
2022/08/12 08:47:17;;;;;;;3.33;1.80;;;22.10;99.70;;;;;;5057586;28;20174;-80
2022/08/12 08:49:42;;;;;;;2.63;2.00;;;22.20;99.90;;;;;;5058110;28;20199;-82
2022/08/12 08:52:10;;;;;;;2.07;1.87;;;22.30;99.90;;;;;;5058272;28;20170;-82
2022/08/12 08:54:36;;;;;;;6.90;1.93;;;22.50;98.40;;;;;;5057987;28;20656;-81
2022/08/12 08:57:04;;;;;;;3.60;1.90;;;22.70;99.20;;;;;;5057616;28;20660;-80
2022/08/12 08:59:30;;;;;;;6.60;2.33;;;22.80;97.60;;;;;;5058237;28;20671;-81
2022/08/12 09:01:56;;;;;;;2.50;2.00;;;23.00;97.20;;;;;;5057880;28;20208;-79
2022/08/12 09:04:25;;;;;;;2.20;2.00;;;23.30;95.70;;;;;;5057128;28;20542;-79
2022/08/12 09:06:58;;;;;;;3.80;2.00;;;23.70;98.60;;;;;;5058486;28;20237;-79
2022/08/12 09:09:24;;;;;;;2.60;1.80;;;23.50;98.30;;;;;;5057210;28;20234;-82
2022/08/12 09:14:34;;;;;;;1.70;1.57;;;23.80;97.50;;;;;;5061773;28;20703;-81
2022/08/12 09:17:00;;;;;;;4.83;1.53;;;24.40;97.30;;;;;;5059332;28;20174;-81
2022/08/12 09:19:26;;;;;;;2.27;2.03;;;23.90;96.90;;;;;;5057751;28;20273;-81
2022/08/12 09:21:52;;;;;;;1.67;1.57;;;24.20;95.00;;;;;;5057803;28;20178;-81
2022/08/12 09:24:18;;;;;;;3.23;1.77;;;;;;;;;;5056425;28;20184;-81
2022/08/12 09:26:45;;;;;;;3.80;1.73;;;24.30;93.90;;;;;;5056922;28;20183;-81
2022/08/12 09:29:15;;;;;;;1.53;1.43;;;24.40;92.70;;;;;;5057774;28;20733;-82
2022/08/12 09:31:41;;;;;;;7.13;1.57;;;24.50;94.30;;;;;;5057980;28;20675;-81
2022/08/12 09:34:09;;;;;;;3.80;1.60;;;24.70;94.70;;;;;;5058438;28;20202;-81
2022/08/12 09:36:37;;;;;;;3.70;1.90;;;24.90;95.00;;;;;;5056323;28;20166;-81
2022/08/12 09:39:05;;;;;;;2.47;1.40;;;25.10;96.10;;;;;;5056368;28;20180;-81
2022/08/12 09:41:40;;;;;;;3.60;1.60;;;25.30;95.60;;;;;;5057916;28;20180;-81
2022/08/12 09:46:51;;;;;;;2.20;1.67;;;25.70;92.90;;;;;;5057571;28;20250;-81
2022/08/12 09:49:17;;;;;;;4.43;1.70;;;25.90;92.00;;;;;;5056923;28;20646;-81
2022/08/12 09:51:43;;;;;;;4.03;1.50;;;25.80;93.00;;;;;;5055332;28;20268;-81
2022/08/12 09:54:13;;;;;;;2.97;1.40;;;25.90;91.90;;;;;;5057267;28;20204;-81
2022/08/12 09:56:39;;;;;;;2.30;1.60;;;26.00;92.10;;;;;;5056880;28;20155;-81
2022/08/12 09:59:07;;;;;;;3.13;1.70;;;26.30;92.90;;;;;;5057572;28;20170;-81
2022/08/12 10:01:36;;;;;;;2.00;1.50;;;26.30;93.40;;;;;;5058062;28;20178;-80
2022/08/12 10:04:02;;;;;;;2.03;1.50;;;26.20;89.40;;;;;;5059451;28;20178;-80
2022/08/12 10:06:28;;;;;;;2.10;1.80;;;26.20;91.80;;;;;;5060194;28;20189;-80
2022/08/12 10:08:54;;;;;;;2.03;1.70;;;26.20;90.00;;;;;;5059026;28;20635;-79
2022/08/12 10:14:05;;;;;;;3.10;1.30;;;26.20;87.60;;;;;;5059949;28;20250;-80
2022/08/12 10:16:32;;;;;;;4.63;1.50;;;26.20;91.20;;;;;;5057816;28;20208;-79
2022/08/12 10:19:04;;;;;;;1.90;1.60;;;26.30;92.50;;;;;;5059658;28;20511;-79
2022/08/12 10:21:37;;;;;;;2.53;1.60;;;26.50;90.60;;;;;;5058223;28;20170;-80
2022/08/12 10:24:10;;;;;;;1.93;1.60;;;26.60;90.90;;;;;;5059165;28;20186;-80
2022/08/12 10:29:38;;;;;;;1.70;1.60;;;26.70;87.90;;;;;;5063931;28;20200;-81
2022/08/12 10:32:16;;;;;;;6.30;1.97;;;26.80;91.00;;;;;;5064162;28;20265;-80
2022/08/12 10:34:42;;;;;;;3.20;1.60;;;27.10;84.30;;;;;;5065351;28;20539;-81
2022/08/12 10:37:08;;;;;;;5.53;1.50;;;27.30;90.60;;;;;;5064982;28;20634;-81
2022/08/12 10:39:36;;;;;;;3.30;1.37;;;27.60;84.80;;;;;;5064245;28;20194;-81
2022/08/12 10:45:00;;;;;;;3.77;1.47;;;27.70;83.20;;;;;;5071719;28;20170;-82
2022/08/12 10:47:31;;;;;;;4.77;1.37;;;27.80;89.30;;;;;;5077908;28;20170;-83
2022/08/12 10:49:58;;;;;;;2.17;1.40;;;28.00;81.30;;;;;;5077865;28;20174;-81
2022/08/12 10:52:25;;;;;;;5.57;1.60;;;28.00;84.10;;;;;;5072197;28;20179;-81
2022/08/12 10:54:51;;;;;;;1.60;1.47;;;28.20;85.10;;;;;;5049900;28;20207;-83
2022/08/12 10:57:18;;;;;;;2.70;1.33;;;28.10;84.40;;;;;;5046168;28;20183;-82
2022/08/12 10:59:44;;;;;;;2.67;1.50;;;;;;;;;;5045188;28;20216;-83
2022/08/12 11:02:14;;;;;;;8.00;1.60;;;;;;;;;;5046772;28;20184;-83
2022/08/12 11:04:40;;;;;;;2.13;1.40;;;27.50;90.40;;;;;;5045261;28;20245;-83
2022/08/12 11:07:08;;;;;;;1.77;1.20;;;28.10;78.90;;;;;;5045420;28;20665;-80
2022/08/12 11:09:36;;;;;;;4.47;1.40;;;27.80;80.10;;;;;;5043117;28;20221;-82
2022/08/12 11:12:05;;;;;;;5.90;1.30;;;27.80;83.20;;;;;;5044094;28;20170;-82
2022/08/12 11:14:32;;;;;;;4.03;1.40;;;28.20;83.10;;;;;;5043637;28;20204;-81
2022/08/12 11:17:03;;;;;;;7.43;1.67;;;27.70;82.30;;;;;;5044330;28;20177;-81
2022/08/12 11:19:31;;;;;;;2.63;1.40;;;28.30;85.10;;;;;;5044341;28;20192;-82
2022/08/12 11:21:58;;;;;;;3.17;1.40;;;28.30;88.00;;;;;;5042790;28;20546;-80
2022/08/12 11:24:24;;;;;;;3.67;1.40;;;28.30;84.10;;;;;;5043334;28;20302;-80
2022/08/12 11:26:54;;;;;;;4.67;1.50;;;27.80;82.00;;;;;;5043482;28;20648;-80
2022/08/12 11:29:21;;;;;;;1.33;1.20;;;27.70;81.30;;;;;;5040471;28;20242;-81
2022/08/12 11:31:47;;;;;;;2.53;1.43;;;27.60;84.90;;;;;;5042387;28;20200;-81
2022/08/12 11:34:13;;;;;;;1.53;1.40;;;27.80;81.30;;;;;;5039830;28;20209;-82
2022/08/12 11:36:52;;;;;;;2.17;1.40;;;26.60;76.90;;;;;;5040938;28;20177;-81
2022/08/12 11:39:18;;;;;;;2.83;1.30;;;27.00;82.10;;;;;;5041916;28;20176;-81
2022/08/12 11:41:44;;;;;;;2.77;1.60;;;26.60;85.50;;;;;;5042307;28;20198;-81
2022/08/12 11:44:10;;;;;;;2.60;1.70;;;;;;;;;;5040703;28;20180;-82
2022/08/12 11:46:37;;;;;;;2.50;1.80;;;25.90;87.40;;;;;;5041249;28;20172;-81
2022/08/12 11:49:04;;;;;;;8.13;1.80;;;25.70;89.10;;;;;;5040723;28;20280;-80
2022/08/12 11:51:30;;;;;;;4.07;1.60;;;25.70;89.80;;;;;;5041135;28;20687;-81
2022/08/12 11:53:57;;;;;;;4.67;1.83;;;25.60;85.80;;;;;;5041345;28;20209;-81
2022/08/12 11:56:22;;;;;;;4.00;1.90;;;25.50;86.10;;;;;;5039826;28;20175;-80
2022/08/12 11:58:48;;;;;;;1.90;1.47;;;25.40;84.00;;;;;;5040449;28;20211;-80
2022/08/12 12:01:14;;;;;;;3.10;1.83;;;25.40;90.70;;;;;;5039911;28;20201;-81
2022/08/12 12:03:40;;;;;;;2.93;1.60;;;25.70;90.20;;;;;;5041843;28;20177;-81
2022/08/12 12:06:06;;;;;;;7.00;2.20;;;25.80;84.00;;;;;;5040771;28;20178;-80
2022/08/12 12:08:32;;;;;;;5.43;1.67;;;26.50;87.00;;;;;;5040554;28;20684;-81
2022/08/12 12:10:58;;;;;;;2.37;1.70;;;26.70;87.90;;;;;;5041247;28;20197;-80
2022/08/12 12:13:23;;;;;;;5.10;1.40;;;27.10;88.80;;;;;;5041918;28;20230;-80
2022/08/12 12:15:49;;;;;;;4.23;1.70;;;27.20;88.60;;;;;;5041791;28;20184;-81
2022/08/12 12:18:30;;;;;;;3.87;1.50;;;26.90;88.00;;;;;;5041252;28;20181;-81
2022/08/12 12:21:03;;;;;;;3.97;1.77;;;26.90;90.00;;;;;;5040368;28;20198;-81
2022/08/12 12:23:29;;;;;;;5.13;1.77;;;27.40;91.40;;;;;;5040375;28;20184;-81
2022/08/12 12:25:55;;;;;;;3.60;1.77;;;27.60;86.60;;;;;;5054410;28;20154;-80
2022/08/12 12:28:21;;;;;;;1.83;1.63;;;27.60;88.40;;;;;;5053222;28;20178;-80
2022/08/12 12:30:47;;;;;;;2.20;1.73;;;27.50;87.20;;;;;;5041174;28;20252;-81
2022/08/12 12:33:12;;;;;;;2.20;1.80;;;27.30;88.20;;;;;;5038577;28;20254;-81
2022/08/12 12:35:40;;;;;;;4.77;1.70;;;27.30;85.70;;;;;;5039456;28;20179;-81
2022/08/12 12:38:10;;;;;;;2.73;1.60;;;27.00;85.90;;;;;;5039457;28;20174;-81
2022/08/12 12:40:39;;;;;;;3.27;1.20;;;26.70;90.20;;;;;;5040131;28;20205;-81
2022/08/12 12:43:05;;;;;;;1.77;1.60;;;26.70;91.00;;;;;;5039905;28;20186;-81
2022/08/12 12:45:33;;;;;;;3.50;1.50;;;28.00;88.90;;;;;;5039139;28;20186;-81
2022/08/12 12:48:08;;;;;;;3.60;1.43;;;28.30;90.10;;;;;;5037988;28;20192;-81
2022/08/12 12:50:42;;;;;;;2.23;1.40;;;28.70;82.50;;;;;;5040539;28;20198;-80
2022/08/12 12:53:09;;;;;;;2.37;1.30;;;29.00;81.90;;;;;;5054425;28;20191;-80
2022/08/12 12:55:36;;;;;;;2.17;1.30;;;29.10;85.50;;;;;;5055063;28;20170;-81
2022/08/12 12:58:10;;;;;;;1.97;1.43;;;29.30;79.50;;;;;;5056203;28;20137;-81
2022/08/12 13:00:43;;;;;;;2.70;1.50;;;29.40;82.50;;;;;;5040081;28;20191;-80
2022/08/12 13:03:11;;;;;;;1.87;1.50;;;29.50;81.60;;;;;;5038586;28;20159;-80
2022/08/12 13:05:37;;;;;;;2.43;1.70;;;29.60;84.70;;;;;;5037997;28;20170;-80
2022/08/12 13:08:26;;;;;;;1.50;1.30;;;29.70;74.90;;;;;;5037664;28;20178;-81
2022/08/12 13:10:59;;;;;;;3.87;1.27;;;29.80;75.80;;;;;;5039533;28;20199;-81
2022/08/12 13:13:28;;;;;;;1.97;1.33;;;29.70;78.40;;;;;;5039663;28;20187;-80
2022/08/12 13:15:55;;;;;;;3.83;1.50;;;29.80;74.40;;;;;;5040794;28;20170;-82
2022/08/12 13:18:22;;;;;;;2.10;0.97;;;29.70;74.50;;;;;;5038654;28;20246;-80
2022/08/12 13:20:48;;;;;;;2.20;1.40;;;29.80;78.40;;;;;;5037941;28;20195;-80
2022/08/12 13:23:16;;;;;;;4.03;1.40;;;29.80;78.80;;;;;;5040065;28;20188;-80
2022/08/12 13:25:43;;;;;;;2.43;1.10;;;29.80;71.10;;;;;;5039828;28;20739;-80
2022/08/12 13:28:27;;;;;;;3.53;1.30;;;29.90;72.40;;;;;;5036752;28;20207;-80
2022/08/12 13:30:58;;;;;;;2.57;1.20;;;30.30;70.00;;;;;;5038680;28;20544;-80
2022/08/12 13:33:28;;;;;;;1.20;0.97;;;30.40;68.30;;;;;;5036227;28;20183;-81
2022/08/12 13:35:59;;;;;;;2.80;1.40;;;30.30;68.70;;;;;;5037179;28;20195;-80
2022/08/12 13:38:45;;;;;;;1.30;1.20;;;30.50;73.40;;;;;;5037054;28;20180;-80
2022/08/12 13:41:31;;;;;;;3.97;1.20;;;30.50;71.30;;;;;;5037520;28;20226;-81
2022/08/12 13:44:01;;;;;;;1.37;1.10;;;30.50;72.60;;;;;;5037482;28;20628;-81
2022/08/12 13:46:27;;;;;;;3.87;1.10;;;30.70;72.90;;;;;;5036793;28;20180;-81
2022/08/12 13:48:53;;;;;;;2.13;1.20;;;30.70;71.80;;;;;;5037069;28;20249;-81
2022/08/12 13:51:19;;;;;;;2.47;1.10;;;;;;;;;;5039466;28;20195;-80
2022/08/12 13:53:45;;;;;;;1.63;1.20;;;31.00;68.50;;;;;;5038147;28;20205;-80
2022/08/12 13:56:11;;;;;;;1.93;1.00;;;31.00;69.00;;;;;;5038383;28;20660;-81
2022/08/12 13:58:41;;;;;;;2.13;1.20;;;31.30;64.50;;;;;;5037494;28;20292;-80
2022/08/12 14:01:06;;;;;;;1.73;1.20;;;31.40;64.80;;;;;;5038594;28;20233;-81
2022/08/12 14:03:32;;;;;;;1.87;1.20;;;31.40;65.30;;;;;;5037780;28;20205;-79
2022/08/12 14:06:03;;;;;;;1.80;1.03;;;31.40;63.50;;;;;;5036507;28;20170;-79
2022/08/12 14:08:29;;;;;;;1.87;1.10;;;31.40;61.40;;;;;;5035711;28;20517;-80
2022/08/12 14:10:55;;;;;;;1.40;1.13;;;31.30;64.80;;;;;;5035484;28;20302;-80
2022/08/12 14:13:26;;;;;;;1.80;1.17;;;31.40;62.60;;;;;;5035137;28;20595;-81
2022/08/12 14:15:56;;;;;;;3.97;1.40;;;31.40;64.60;;;;;;5036599;28;20177;-80
2022/08/12 14:18:24;;;;;;;3.20;1.30;;;31.40;60.60;;;;;;5036733;28;20267;-81
2022/08/12 14:20:59;;;;;;;4.00;1.10;;;31.20;60.60;;;;;;5037103;28;20207;-81
2022/08/12 14:23:27;;;;;;;1.33;1.20;;;31.30;62.10;;;;;;5037502;28;20273;-81
2022/08/12 14:25:54;;;;;;;1.27;1.17;;;31.60;62.00;;;;;;5036687;28;20529;-81
2022/08/12 14:28:22;;;;;;;2.20;1.43;;;31.60;62.70;;;;;;5035069;28;20179;-81
2022/08/12 14:30:55;;;;;;;1.83;1.30;;;31.70;62.80;;;;;;5035429;28;20198;-81
2022/08/12 14:33:24;;;;;;;2.60;1.20;;;31.70;61.80;;;;;;5035486;28;20176;-81
2022/08/12 14:35:52;;;;;;;2.53;1.20;;;31.90;62.70;;;;;;5035340;28;20180;-81
2022/08/12 14:38:23;;;;;;;3.63;1.30;;;31.90;63.60;;;;;;5035932;28;20481;-80
2022/08/12 14:40:55;;;;;;;6.13;1.70;;;31.90;59.00;;;;;;5034745;28;20201;-81
2022/08/12 14:43:22;;;;;;;4.87;1.33;;;31.90;59.30;;;;;;5036575;28;20195;-80
2022/08/12 14:45:48;;;;;;;3.67;1.33;;;30.10;59.10;;;;;;5035037;28;20584;-80
2022/08/12 14:48:19;;;;;;;3.60;1.40;;;29.90;59.90;;;;;;5034724;28;20183;-81
2022/08/12 14:50:47;;;;;;;1.63;1.30;;;29.70;63.10;;;;;;5035522;28;20285;-80
2022/08/12 14:53:16;;;;;;;3.07;1.27;;;29.40;65.80;;;;;;5034911;28;20668;-80
2022/08/12 14:55:44;;;;;;;2.80;1.07;;;28.60;61.50;;;;;;5035889;28;20170;-80
2022/08/12 14:58:10;;;;;;;2.70;1.10;;;27.30;68.00;;;;;;5035798;28;20175;-80
2022/08/12 15:03:27;;;;;;;3.10;1.30;;;27.60;71.10;;;;;;5040565;28;20572;-81
2022/08/12 15:05:57;;;;;;;2.17;1.10;;;28.40;62.60;;;;;;5053902;28;20202;-81